createdAt,value
2022-08-26T00:00:59.877Z,98023.91
2022-08-26T00:03:49.629Z,98024.13
2022-08-26T00:06:42.456Z,98032.03
2022-08-26T00:09:38.885Z,98028.13
2022-08-26T00:12:37.485Z,98025.88
2022-08-26T00:15:27.618Z,98024.19
2022-08-26T00:18:22.604Z,98024.59
2022-08-26T00:21:11.980Z,98024.44
2022-08-26T00:24:02.428Z,98023.44
2022-08-26T00:26:52.415Z,98023.66
2022-08-26T00:29:41.544Z,98023.66
2022-08-26T00:32:31.774Z,98016.22
2022-08-26T00:35:24.560Z,98021.00
2022-08-26T00:38:17.553Z,98021.38
2022-08-26T00:41:08.325Z,98017.22
2022-08-26T00:43:57.487Z,98012.28
2022-08-26T00:46:51.893Z,98026.34
2022-08-26T00:49:44.569Z,98026.81
2022-08-26T00:52:33.833Z,98034.66
2022-08-26T00:55:37.733Z,98025.97
2022-08-26T00:58:32.878Z,98026.38
2022-08-26T01:01:22.890Z,98026.38
2022-08-26T01:04:16.848Z,98035.91
2022-08-26T01:07:07.017Z,98031.78
2022-08-26T01:09:57.560Z,98030.56
2022-08-26T01:12:53.041Z,98024.78
2022-08-26T01:15:48.908Z,98025.59
2022-08-26T01:18:38.385Z,98030.13
2022-08-26T01:21:32.126Z,98035.72
2022-08-26T01:24:23.224Z,98025.41
2022-08-26T01:27:22.020Z,98027.88
2022-08-26T01:30:14.815Z,98023.56
2022-08-26T01:33:11.404Z,98025.63
2022-08-26T01:36:02.479Z,98033.06
2022-08-26T01:38:51.554Z,98040.09
2022-08-26T01:41:44.421Z,98031.22
2022-08-26T01:44:40.574Z,98032.44
2022-08-26T01:47:34.621Z,98033.69
2022-08-26T01:50:30.099Z,98025.19
2022-08-26T01:53:23.019Z,98024.59
2022-08-26T01:56:15.785Z,98029.34
2022-08-26T01:59:09.353Z,98022.72
2022-08-26T02:02:00.073Z,98026.66
2022-08-26T02:04:55.470Z,98021.06
2022-08-26T02:07:46.138Z,98027.69
2022-08-26T02:10:35.435Z,98030.19
2022-08-26T02:13:30.084Z,98027.88
2022-08-26T02:16:25.416Z,98026.81
2022-08-26T02:19:19.880Z,98027.25
2022-08-26T02:22:16.145Z,98024.13
2022-08-26T02:25:17.550Z,98032.19
2022-08-26T02:28:07.497Z,98027.41
2022-08-26T02:30:57.606Z,98033.00
2022-08-26T02:33:49.748Z,98035.06
2022-08-26T02:36:39.567Z,98033.63
2022-08-26T02:39:30.438Z,98030.09
2022-08-26T02:42:19.637Z,98040.00
2022-08-26T02:45:11.095Z,98040.41
2022-08-26T02:48:01.036Z,98036.28
2022-08-26T02:50:52.248Z,98039.59
2022-08-26T02:53:42.567Z,98041.44
2022-08-26T02:56:33.768Z,98040.81
2022-08-26T02:59:24.670Z,98033.97
2022-08-26T03:02:14.196Z,98032.13
2022-08-26T03:05:05.002Z,98027.78
2022-08-26T03:07:55.553Z,98026.53
2022-08-26T03:10:46.447Z,98036.88
2022-08-26T03:13:37.231Z,98030.03
2022-08-26T03:16:26.485Z,98031.06
2022-08-26T03:19:24.269Z,98031.06
2022-08-26T03:22:14.671Z,98035.19
2022-08-26T03:25:09.955Z,98025.88
2022-08-26T03:27:59.515Z,98020.94
2022-08-26T03:30:48.088Z,98014.28
2022-08-26T03:33:38.121Z,98013.03
2022-08-26T03:36:27.483Z,98013.69
2022-08-26T03:39:16.997Z,98009.31
2022-08-26T03:42:08.108Z,98011.41
2022-08-26T03:44:57.272Z,98015.09
2022-08-26T03:47:48.265Z,98015.47
2022-08-26T03:50:38.885Z,98008.88
2022-08-26T03:53:28.192Z,98005.97
2022-08-26T03:56:17.531Z,98005.97
2022-08-26T03:59:08.503Z,98012.34
2022-08-26T04:01:58.193Z,98007.38
2022-08-26T04:04:47.545Z,98012.75
2022-08-26T04:07:36.810Z,98010.28
2022-08-26T04:10:29.192Z,98016.88
2022-08-26T04:13:18.799Z,98015.03
2022-08-26T04:16:10.192Z,98016.19
2022-08-26T04:19:00.531Z,98008.34
2022-08-26T04:21:53.264Z,98011.03
2022-08-26T04:24:42.584Z,98010.19
2022-08-26T04:27:31.827Z,98012.06
2022-08-26T04:30:21.873Z,98012.06
2022-08-26T04:33:14.090Z,98018.44
2022-08-26T04:36:05.374Z,98013.91
2022-08-26T04:38:54.536Z,98022.41
2022-08-26T04:41:44.622Z,98021.13
2022-08-26T04:44:37.721Z,98029.16
2022-08-26T04:47:32.232Z,98016.19
2022-08-26T04:50:25.796Z,98024.44
2022-08-26T04:53:15.923Z,98023.78
2022-08-26T04:56:06.507Z,98020.72
2022-08-26T04:58:56.575Z,98023.41
2022-08-26T05:01:46.762Z,98025.06
2022-08-26T05:04:37.408Z,98030.84
2022-08-26T05:07:28.586Z,98024.47
2022-08-26T05:10:17.842Z,98028.25
2022-08-26T05:13:11.006Z,98039.00
2022-08-26T05:16:05.807Z,98047.63
2022-08-26T05:18:55.133Z,98033.03
2022-08-26T05:21:44.647Z,98029.50
2022-08-26T05:24:37.791Z,98025.78
2022-08-26T05:27:27.439Z,98022.28
2022-08-26T05:30:17.345Z,98018.56
2022-08-26T05:33:07.914Z,98023.13
2022-08-26T05:35:57.333Z,98026.91
2022-08-26T05:38:47.219Z,98038.91
2022-08-26T05:41:41.995Z,98039.56
2022-08-26T05:44:51.845Z,98045.38
2022-08-26T05:47:40.882Z,98064.16
2022-08-26T05:50:30.111Z,98054.09
2022-08-26T05:53:22.615Z,98056.78
2022-08-26T05:56:15.759Z,98067.78
2022-08-26T05:59:11.665Z,98077.72
2022-08-26T06:02:03.962Z,98074.25
2022-08-26T06:04:53.146Z,98065.31
2022-08-26T06:08:00.269Z,98076.50
2022-08-26T06:10:53.050Z,98069.44
2022-08-26T06:13:42.639Z,98071.53
2022-08-26T06:16:36.321Z,98081.22
2022-08-26T06:19:25.733Z,98084.31
2022-08-26T06:22:45.012Z,98090.09
2022-08-26T06:25:40.419Z,98082.88
2022-08-26T06:28:29.949Z,98088.81
2022-08-26T06:31:19.421Z,98083.84
2022-08-26T06:34:10.988Z,98074.66
2022-08-26T06:37:03.577Z,98075.44
2022-08-26T06:39:52.778Z,98080.75
2022-08-26T06:42:42.818Z,98073.25
2022-08-26T06:45:32.165Z,98078.22
2022-08-26T06:48:22.228Z,98070.03
2022-08-26T06:51:16.265Z,98069.13
2022-08-26T06:54:07.546Z,98069.28
2022-08-26T06:56:57.442Z,98071.06
2022-08-26T06:59:47.257Z,98061.06
2022-08-26T07:02:41.082Z,98057.47
2022-08-26T07:05:36.831Z,98052.44
2022-08-26T07:08:27.417Z,98057.53
2022-08-26T07:11:18.939Z,98050.81
2022-08-26T07:14:09.422Z,98043.66
2022-08-26T07:16:59.434Z,98037.69
2022-08-26T07:19:48.930Z,98023.66
2022-08-26T07:22:39.747Z,98031.31
2022-08-26T07:25:33.172Z,98024.69
2022-08-26T07:28:22.778Z,98028.56
2022-08-26T07:31:15.391Z,98023.97
2022-08-26T07:34:07.413Z,98024.72
2022-08-26T07:36:58.731Z,98021.22
2022-08-26T07:39:48.386Z,98023.78
2022-08-26T07:42:40.045Z,98023.41
2022-08-26T07:45:29.377Z,98014.72
2022-08-26T07:48:18.960Z,98012.34
2022-08-26T07:51:10.861Z,98010.06
2022-08-26T07:54:00.157Z,98008.09
2022-08-26T07:56:50.111Z,98012.81
2022-08-26T07:59:42.497Z,98007.22
2022-08-26T08:02:31.959Z,98005.94
2022-08-26T08:05:23.876Z,98005.75
2022-08-26T08:08:26.503Z,98001.34
2022-08-26T08:11:17.005Z,97996.59
2022-08-26T08:14:08.439Z,97994.31
2022-08-26T08:16:59.272Z,98000.94
2022-08-26T08:19:48.726Z,97995.78
2022-08-26T08:22:38.489Z,97995.00
2022-08-26T08:25:28.250Z,97975.66
2022-08-26T08:28:17.531Z,97985.13
2022-08-26T08:31:08.480Z,97972.41
2022-08-26T08:33:59.230Z,97972.34
2022-08-26T08:36:48.528Z,97969.78
2022-08-26T08:39:38.445Z,97974.50
2022-08-26T08:42:45.606Z,97969.13
2022-08-26T08:45:40.470Z,97968.31
2022-08-26T08:48:36.651Z,97961.16
2022-08-26T08:51:40.333Z,97961.13
2022-08-26T08:54:32.396Z,97961.88
2022-08-26T08:57:38.760Z,97964.22
2022-08-26T09:00:39.912Z,97959.75
2022-08-26T09:03:48.621Z,97958.69
2022-08-26T09:06:41.313Z,97951.09
2022-08-26T09:09:40.329Z,97940.31
2022-08-26T09:12:35.316Z,97935.06
2022-08-26T09:15:33.160Z,97934.94
2022-08-26T09:19:01.003Z,97932.50
2022-08-26T09:21:59.001Z,97929.41
2022-08-26T09:24:49.972Z,97931.59
2022-08-26T09:27:44.926Z,97923.56
2022-08-26T09:30:36.508Z,97920.28
2022-08-26T09:33:32.303Z,97924.19
2022-08-26T09:36:39.141Z,97914.25
2022-08-26T09:39:37.856Z,97925.06
2022-08-26T09:42:27.671Z,97917.47
2022-08-26T09:45:27.863Z,97910.09
2022-08-26T09:48:28.710Z,97903.53
2022-08-26T09:51:31.891Z,97902.66
2022-08-26T09:54:30.416Z,97884.31
2022-08-26T09:57:28.149Z,97882.03
2022-08-26T10:00:31.726Z,97875.13
2022-08-26T10:03:27.537Z,97869.94
2022-08-26T10:06:26.780Z,97859.31
2022-08-26T10:09:19.847Z,97853.38
2022-08-26T10:12:14.829Z,97838.81
2022-08-26T10:15:12.666Z,97831.22
2022-08-26T10:18:10.869Z,97826.50
2022-08-26T10:21:08.281Z,97818.00
2022-08-26T10:24:00.525Z,97816.03
2022-08-26T10:27:01.741Z,97814.53
2022-08-26T10:29:56.049Z,97805.75
2022-08-26T10:32:50.230Z,97807.13
2022-08-26T10:35:52.462Z,97801.97
2022-08-26T10:38:44.337Z,97804.66
2022-08-26T10:41:38.172Z,97804.72
2022-08-26T10:44:34.119Z,97804.22
2022-08-26T10:47:29.269Z,97795.84
2022-08-26T10:50:21.420Z,97798.09
2022-08-26T10:53:19.698Z,97790.75
2022-08-26T10:56:28.664Z,97791.94
2022-08-26T10:59:29.561Z,97787.91
2022-08-26T11:02:29.611Z,97789.00
2022-08-26T11:05:23.432Z,97793.50
2022-08-26T11:08:31.064Z,97788.44
2022-08-26T11:11:49.357Z,97775.78
2022-08-26T11:14:53.602Z,97777.44
2022-08-26T11:17:58.429Z,97773.75
2022-08-26T11:20:50.916Z,97782.09
2022-08-26T11:23:50.563Z,97768.78
2022-08-26T11:26:55.640Z,97769.81
2022-08-26T11:30:02.259Z,97762.41
2022-08-26T11:32:53.936Z,97756.00
2022-08-26T11:35:52.483Z,97756.53
2022-08-26T11:38:45.012Z,97743.63
2022-08-26T11:41:35.706Z,97731.28
2022-08-26T11:44:30.118Z,97730.97
2022-08-26T11:47:29.246Z,97725.84
2022-08-26T11:50:23.288Z,97723.66
2022-08-26T11:53:20.931Z,97714.28
2022-08-26T11:56:18.571Z,97707.75
2022-08-26T11:59:15.513Z,97702.00
2022-08-26T12:02:05.836Z,97701.09
2022-08-26T12:04:57.188Z,97701.25
2022-08-26T12:07:51.512Z,97700.53
2022-08-26T12:10:44.440Z,97699.22
2022-08-26T12:13:34.570Z,97696.31
2022-08-26T12:16:26.552Z,97691.91
2022-08-26T12:19:27.573Z,97694.28
2022-08-26T12:22:20.972Z,97691.84
2022-08-26T12:25:12.167Z,97688.50
2022-08-26T12:28:07.691Z,97682.41
2022-08-26T12:31:13.946Z,97677.81
2022-08-26T12:34:17.644Z,97672.00
2022-08-26T12:37:08.430Z,97667.19
2022-08-26T12:40:17.909Z,97662.03
2022-08-26T12:43:37.553Z,97662.34
2022-08-26T12:46:30.052Z,97651.44
2022-08-26T12:49:20.117Z,97650.09
2022-08-26T12:52:29.847Z,97653.13
2022-08-26T12:55:27.740Z,97653.97
2022-08-26T12:58:28.950Z,97649.25
2022-08-26T13:01:24.222Z,97647.13
2022-08-26T13:04:34.718Z,97646.72
2022-08-26T13:07:29.022Z,97640.66
2022-08-26T13:10:37.314Z,97641.97
2022-08-26T13:13:27.868Z,97639.69
2022-08-26T13:16:17.119Z,97630.31
2022-08-26T13:19:11.135Z,97626.69
2022-08-26T13:22:03.618Z,97622.13
2022-08-26T13:24:56.553Z,97625.97
2022-08-26T13:27:45.930Z,97636.03
2022-08-26T13:30:36.485Z,97641.97
2022-08-26T13:33:26.266Z,97643.38
2022-08-26T13:36:15.624Z,97638.59
2022-08-26T13:39:05.370Z,97636.63
2022-08-26T13:41:55.123Z,97640.16
2022-08-26T13:44:47.693Z,97634.06
2022-08-26T13:47:38.982Z,97646.53
2022-08-26T13:50:28.027Z,97656.13
2022-08-26T13:53:18.732Z,97653.38
2022-08-26T13:56:11.076Z,97641.66
2022-08-26T13:59:01.544Z,97638.81
2022-08-26T14:01:50.702Z,97651.78
2022-08-26T14:04:42.008Z,97677.88
2022-08-26T14:07:31.379Z,97692.69
2022-08-26T14:10:21.775Z,97711.00
2022-08-26T14:13:11.021Z,97714.00
2022-08-26T14:16:01.446Z,97745.19
2022-08-26T14:18:51.616Z,97755.59
2022-08-26T14:21:42.217Z,97785.53
2022-08-26T14:24:31.589Z,97807.38
2022-08-26T14:27:20.773Z,97832.81
2022-08-26T14:30:11.665Z,97834.50
2022-08-26T14:33:01.050Z,97817.28
2022-08-26T14:35:50.221Z,97792.97
2022-08-26T14:38:41.261Z,97780.16
2022-08-26T14:41:33.187Z,97781.81
2022-08-26T14:44:25.475Z,97787.53
2022-08-26T14:47:14.843Z,97773.88
2022-08-26T14:50:04.478Z,97765.41
2022-08-26T14:53:11.869Z,97750.13
2022-08-26T14:56:02.538Z,97743.88
2022-08-26T14:58:54.968Z,97758.63
2022-08-26T15:01:44.378Z,97776.06
2022-08-26T15:04:34.287Z,97800.63
2022-08-26T15:07:23.746Z,97843.16
2022-08-26T15:10:16.822Z,97878.53
2022-08-26T15:13:07.587Z,97884.53
2022-08-26T15:15:57.407Z,97868.25
2022-08-26T15:18:46.723Z,97857.25
2022-08-26T15:21:37.107Z,97846.25
2022-08-26T15:24:28.854Z,97837.44
2022-08-26T15:27:18.292Z,97834.81
2022-08-26T15:30:13.255Z,97836.56
2022-08-26T15:33:02.763Z,97840.63
2022-08-26T15:35:52.068Z,97831.72
2022-08-26T15:38:43.206Z,97828.31
2022-08-26T15:41:34.804Z,97828.13
2022-08-26T15:44:26.421Z,97817.06
2022-08-26T15:47:17.278Z,97806.03
2022-08-26T15:50:08.869Z,97794.22
2022-08-26T15:52:59.666Z,97791.00
2022-08-26T15:55:49.304Z,97792.44
2022-08-26T15:58:39.041Z,97775.13
2022-08-26T16:01:32.601Z,97778.97
2022-08-26T16:04:23.262Z,97778.75
2022-08-26T16:07:12.670Z,97780.00
2022-08-26T16:10:02.351Z,97777.63
2022-08-26T16:12:51.624Z,97781.81
2022-08-26T16:15:42.649Z,97793.25
2022-08-26T16:18:32.253Z,97799.88
2022-08-26T16:21:27.796Z,97801.81
2022-08-26T16:24:17.262Z,97797.75
2022-08-26T16:27:06.634Z,97797.75
2022-08-26T16:29:55.854Z,97795.41
2022-08-26T16:32:45.006Z,97804.94
2022-08-26T16:35:34.757Z,97801.03
2022-08-26T16:38:25.494Z,97810.59
2022-08-26T16:41:14.667Z,97808.34
2022-08-26T16:44:05.069Z,97798.81
2022-08-26T16:46:58.564Z,97798.72
2022-08-26T16:49:48.771Z,97792.25
2022-08-26T16:52:38.673Z,97793.56
2022-08-26T16:55:29.357Z,97791.19
2022-08-26T16:58:21.944Z,97774.88
2022-08-26T17:01:12.208Z,97776.97
2022-08-26T17:04:01.542Z,97773.53
2022-08-26T17:06:51.148Z,97777.44
2022-08-26T17:09:41.456Z,97796.47
2022-08-26T17:12:32.350Z,97827.16
2022-08-26T17:15:23.671Z,97830.19
2022-08-26T17:18:12.935Z,97821.84
2022-08-26T17:21:05.150Z,97833.28
2022-08-26T17:23:54.691Z,97830.34
2022-08-26T17:26:50.028Z,97815.84
2022-08-26T17:29:44.612Z,97818.56
2022-08-26T17:32:34.302Z,97818.72
2022-08-26T17:35:24.582Z,97811.28
2022-08-26T17:38:13.838Z,97823.19
2022-08-26T17:41:03.461Z,97837.03
2022-08-26T17:43:52.715Z,97854.81
2022-08-26T17:46:43.333Z,97846.09
2022-08-26T17:49:32.881Z,97846.00
2022-08-26T17:52:22.137Z,97859.72
2022-08-26T17:55:15.009Z,97857.50
2022-08-26T17:58:07.133Z,97858.53
2022-08-26T18:00:56.679Z,97863.00
2022-08-26T18:03:47.343Z,97858.88
2022-08-26T18:06:39.227Z,97853.34
2022-08-26T18:09:31.723Z,97854.66
2022-08-26T18:12:21.002Z,97862.38
2022-08-26T18:15:18.358Z,97859.69
2022-08-26T18:18:08.023Z,97858.03
2022-08-26T18:21:01.923Z,97868.44
2022-08-26T18:23:54.559Z,97869.41
2022-08-26T18:26:48.826Z,97859.63
2022-08-26T18:29:38.134Z,97870.09
2022-08-26T18:32:35.002Z,97868.88
2022-08-26T18:35:28.238Z,97865.38
2022-08-26T18:38:19.277Z,97872.03
2022-08-26T18:41:08.828Z,97891.06
2022-08-26T18:43:59.044Z,97886.72
2022-08-26T18:46:50.015Z,97897.06
2022-08-26T18:49:39.447Z,97902.31
2022-08-26T18:52:29.082Z,97900.47
2022-08-26T18:55:20.231Z,97905.03
2022-08-26T18:58:09.674Z,97904.31
2022-08-26T19:01:00.406Z,97911.34
2022-08-26T19:03:51.253Z,97915.84
2022-08-26T19:06:42.522Z,97916.19
2022-08-26T19:09:31.870Z,97913.25
2022-08-26T19:12:22.857Z,97920.75
2022-08-26T19:15:16.489Z,97915.00
2022-08-26T19:18:06.212Z,97915.44
2022-08-26T19:20:55.447Z,97914.50
2022-08-26T19:23:46.376Z,97906.63
2022-08-26T19:26:36.588Z,97911.25
2022-08-26T19:29:33.125Z,97913.34
2022-08-26T19:32:24.261Z,97918.59
2022-08-26T19:35:14.194Z,97918.38
2022-08-26T19:38:05.213Z,97926.69
2022-08-26T19:40:54.686Z,97925.94
2022-08-26T19:43:44.684Z,97924.91
2022-08-26T19:49:28.011Z,97924.44
2022-08-26T19:52:17.235Z,97927.00
2022-08-26T19:55:09.002Z,97930.06
2022-08-26T19:57:58.528Z,97937.78
2022-08-26T20:00:47.823Z,97935.53
2022-08-26T20:03:39.592Z,97924.53
2022-08-26T20:06:28.967Z,97917.09
2022-08-26T20:09:18.334Z,97914.63
2022-08-26T20:12:09.124Z,97927.31
2022-08-26T20:14:58.586Z,97934.75
2022-08-26T20:17:48.374Z,97936.41
2022-08-26T20:20:57.411Z,97949.69
2022-08-26T20:23:47.355Z,97962.16
2022-08-26T20:27:04.315Z,97973.31
2022-08-26T20:29:56.441Z,97969.13
2022-08-26T20:32:45.742Z,97980.84
2022-08-26T20:35:35.350Z,97976.03
2022-08-26T20:38:25.929Z,97986.25
2022-08-26T20:41:15.626Z,97995.59
2022-08-26T20:44:05.846Z,97998.47
2022-08-26T20:46:56.484Z,98007.84
2022-08-26T20:49:45.972Z,98009.72
2022-08-26T20:52:39.995Z,98008.69
2022-08-26T20:55:30.673Z,98014.53
2022-08-26T20:58:19.831Z,98008.06
2022-08-26T21:01:18.265Z,98008.69
2022-08-26T21:04:11.639Z,98008.28
2022-08-26T21:07:00.880Z,98012.50
2022-08-26T21:09:50.034Z,98021.88
2022-08-26T21:12:42.249Z,98024.56
2022-08-26T21:15:31.829Z,98032.50
2022-08-26T21:18:21.025Z,98027.97
2022-08-26T21:21:10.599Z,98027.00
2022-08-26T21:24:00.338Z,98018.50
2022-08-26T21:26:50.177Z,98006.06
2022-08-26T21:29:40.773Z,98007.13
2022-08-26T21:32:30.298Z,97995.75
2022-08-26T21:35:19.807Z,97991.44
2022-08-26T21:38:09.292Z,97984.22
2022-08-26T21:41:00.235Z,97986.56
2022-08-26T21:43:51.430Z,97984.72
2022-08-26T21:46:43.713Z,97984.94
2022-08-26T21:49:33.214Z,97984.56
2022-08-26T21:52:22.690Z,97985.19
2022-08-26T21:55:12.593Z,97990.44
2022-08-26T21:58:02.497Z,97995.00
2022-08-26T22:00:52.943Z,97995.22
2022-08-26T22:03:47.102Z,97994.81
2022-08-26T22:06:46.549Z,97992.81
2022-08-26T22:09:35.777Z,97998.19
2022-08-26T22:12:28.183Z,97996.53
2022-08-26T22:15:19.750Z,97991.53
2022-08-26T22:18:10.280Z,97987.41
2022-08-26T22:21:04.832Z,97975.44
2022-08-26T22:23:57.865Z,97967.34
2022-08-26T22:26:48.956Z,97974.19
2022-08-26T22:29:38.096Z,97981.69
2022-08-26T22:32:27.343Z,97974.47
2022-08-26T22:35:28.956Z,97965.75
2022-08-26T22:38:24.021Z,97952.28
2022-08-26T22:41:14.109Z,97945.25
2022-08-26T22:44:04.564Z,97947.34
2022-08-26T22:46:55.498Z,97948.19
2022-08-26T22:49:44.639Z,97945.91
2022-08-26T22:52:34.778Z,97946.13
2022-08-26T22:55:25.381Z,97937.06
2022-08-26T22:58:18.127Z,97936.84
2022-08-26T23:01:08.769Z,97935.84
2022-08-26T23:03:58.075Z,97935.63
2022-08-26T23:06:48.080Z,97926.94
2022-08-26T23:09:37.959Z,97924.66
2022-08-26T23:12:28.952Z,97918.06
2022-08-26T23:15:18.448Z,97919.09
2022-08-26T23:18:10.866Z,97910.84
2022-08-26T23:21:00.227Z,97909.59
2022-08-26T23:23:49.805Z,97910.25
2022-08-26T23:26:41.107Z,97918.09
2022-08-26T23:29:31.962Z,97919.19
2022-08-26T23:32:21.483Z,97905.72
2022-08-26T23:35:11.988Z,97913.56
2022-08-26T23:38:03.594Z,97912.78
2022-08-26T23:40:53.022Z,97920.22
2022-08-26T23:43:43.419Z,97924.56
2022-08-26T23:46:34.487Z,97928.31
2022-08-26T23:49:24.539Z,97931.00
2022-08-26T23:52:31.237Z,97936.81
2022-08-26T23:55:20.708Z,97936.19
2022-08-26T23:58:10.111Z,97947.78
